Huvudsida
METAR-TAF:

METAR-TAF

Flygplatser :

Sharurah, Saudiarabien

latitud: 17-28N, longitud: 047-07E, höjd: 720 m

Aktuellt väderrapport

Denna rapport gjordes för 44 minuter sedan, klockan 14:00 UTC
Vind 13 kt från nord/nordost
Temperatur 42°C
Fuktighet 16%
Tryck 1005 hPa
Sikt: 7000 m
Klar himmel

METAR: OESH 261400Z 03013KT 7000 SKC 42/11 Q1005 NOSIG

Tid: 17:44 (14:44 UTC)

Väderprognos

Denna rapport gjordes för 3 timmar och 44 minuter sedan, klockan 11:00 UTC
Prognos gäller från 26 kl. 12 UTC till 27 kl. 18 UTC
Vind 16 kt från nordost
Sikt: 7000 m
Få moln på en höjd av 4000 ft
Spridda moln på en höjd av 10000 ft
Temporärt
från 26 kl. 12 UTC till 26 kl. 18 UTC
Sikt: 4000 m
högt damm drev
Blir
från 26 kl. 20 UTC till 26 kl. 22 UTC
Vind 3 kt varierande vindriktning

TAF: OESH 261100Z 2612/2718 04016KT 7000 FEW040 SCT100 TEMPO 2612/2618 4000 BLDU BECMG 2620/2622 VRB03KT

Aktuella väderrapporter och prognoser från 4000 flygplatser (METAR- och TAF-rapporter).

De tillgängliga stationerna syns som gula och röda prickar på kartan.

För musen över prickarna för att se namnen på stationerna.

Klicka sedan för att få väderrapporter och prognoser.

För att ändra kartan: Klicka på de gröna knapparna med ett svart kors på för att zooma in; den gröna knappen med ett streck på för att zooma ut; eller på de gröna pilarna för angränsande kartor.


METAR-TAF: